Time;durP1;ratioP1;P1;durP2;ratioP2;P2;SDS_P1;SDS_P2;PMS_P1;PMS_P2;Temp;Humidity;BMP_temperature;BMP_pressure;BME280_temperature;BME280_humidity;BME280_pressure;Samples;Min_cycle;Max_cycle;Signal;HPM_P1;HPM_P2
2024/03/02 00:00:50;;;;;;;24.27;15.00;;;8.70;99.90;;;;;;4955363;28;20276;-52
2024/03/02 00:03:17;;;;;;;26.00;15.00;;;8.70;99.90;;;;;;4965149;28;20344;-54
2024/03/02 00:05:49;;;;;;;23.20;15.27;;;8.70;99.90;;;;;;4956948;28;20803;-54
2024/03/02 00:08:23;;;;;;;26.57;14.77;;;8.70;99.90;;;;;;4953999;28;20209;-52
2024/03/02 00:10:50;;;;;;;23.40;15.10;;;8.70;99.90;;;;;;4949500;28;20276;-55
2024/03/02 00:13:17;;;;;;;21.40;13.77;;;8.60;99.90;;;;;;4962345;28;20219;-54
2024/03/02 00:15:50;;;;;;;23.93;14.63;;;8.60;99.90;;;;;;4956076;28;20217;-56
2024/03/02 00:18:20;;;;;;;23.93;15.73;;;8.70;99.90;;;;;;4965061;28;20190;-56
2024/03/02 00:20:48;;;;;;;21.83;14.43;;;8.60;99.90;;;;;;4958814;28;20213;-55
2024/03/02 00:23:16;;;;;;;21.20;14.43;;;8.60;99.90;;;;;;4934408;28;20225;-53
2024/03/02 00:25:45;;;;;;;23.67;14.93;;;8.60;99.90;;;;;;4954401;28;20281;-52
2024/03/02 00:28:20;;;;;;;24.20;14.53;;;8.60;99.90;;;;;;4957286;28;20197;-54
2024/03/02 00:30:56;;;;;;;24.70;15.10;;;8.60;99.90;;;;;;4960396;28;20276;-51
2024/03/02 00:33:24;;;;;;;22.63;13.80;;;8.60;99.90;;;;;;4962087;28;21089;-51
2024/03/02 00:35:53;;;;;;;24.13;15.07;;;8.60;99.90;;;;;;4965212;28;20203;-54
2024/03/02 00:38:20;;;;;;;24.80;14.93;;;8.60;99.90;;;;;;4927040;28;20202;-52
2024/03/02 00:40:48;;;;;;;25.53;15.23;;;8.60;99.90;;;;;;4956570;28;20281;-54
2024/03/02 00:43:41;;;;;;;28.00;14.83;;;8.60;99.90;;;;;;4954375;28;20225;-55
2024/03/02 00:46:08;;;;;;;26.00;15.57;;;8.60;99.90;;;;;;4961066;28;20206;-54
2024/03/02 00:48:35;;;;;;;25.30;14.93;;;8.60;99.90;;;;;;4954691;28;20205;-52
2024/03/02 00:51:04;;;;;;;20.43;14.47;;;8.60;99.90;;;;;;4963483;28;20205;-52
2024/03/02 00:53:32;;;;;;;26.03;15.73;;;8.60;99.90;;;;;;4928776;28;20272;-55
2024/03/02 00:56:00;;;;;;;26.30;15.73;;;8.60;99.90;;;;;;4951845;28;20213;-55
2024/03/02 00:58:26;;;;;;;25.63;15.83;;;8.60;99.90;;;;;;4947676;28;20202;-53
2024/03/02 01:00:53;;;;;;;28.00;16.37;;;8.60;99.90;;;;;;4962302;28;20233;-55
2024/03/02 01:03:21;;;;;;;25.67;16.63;;;8.60;99.90;;;;;;4944109;28;21517;-55
2024/03/02 01:05:47;;;;;;;27.27;16.63;;;8.60;99.90;;;;;;4950984;28;20337;-54
2024/03/02 01:08:16;;;;;;;27.40;16.33;;;8.50;99.90;;;;;;4943503;28;20209;-54
2024/03/02 01:10:43;;;;;;;28.07;16.67;;;8.60;99.90;;;;;;4939120;28;20312;-53
2024/03/02 01:13:10;;;;;;;29.17;17.90;;;8.50;99.90;;;;;;4951608;28;20229;-54
2024/03/02 01:15:37;;;;;;;32.10;17.97;;;8.50;99.90;;;;;;4963209;28;20204;-52
2024/03/02 01:18:04;;;;;;;32.47;17.07;;;8.50;99.90;;;;;;4964690;28;20210;-53
2024/03/02 01:20:31;;;;;;;31.47;17.90;;;8.50;99.90;;;;;;4952244;28;20224;-54
2024/03/02 01:22:57;;;;;;;29.63;17.40;;;8.50;99.90;;;;;;4964738;28;20210;-51
2024/03/02 01:25:26;;;;;;;30.60;18.30;;;8.50;99.90;;;;;;4933250;28;20209;-53
2024/03/02 01:27:53;;;;;;;31.03;18.17;;;8.50;99.90;;;;;;4953496;28;20222;-53
2024/03/02 01:30:21;;;;;;;30.30;17.80;;;8.50;99.90;;;;;;4952030;28;20225;-53
2024/03/02 01:32:48;;;;;;;28.37;17.70;;;8.50;99.90;;;;;;4963858;28;20202;-52
2024/03/02 01:35:15;;;;;;;32.37;19.37;;;8.50;99.90;;;;;;4951439;28;20209;-54
2024/03/02 01:37:42;;;;;;;34.97;18.83;;;8.50;99.90;;;;;;4962994;28;20222;-54
2024/03/02 01:40:11;;;;;;;33.03;18.30;;;8.50;99.90;;;;;;4924858;28;20257;-54
2024/03/02 01:42:39;;;;;;;31.67;19.80;;;8.40;99.90;;;;;;4953390;28;21883;-54
2024/03/02 01:45:08;;;;;;;28.40;17.57;;;8.40;99.90;;;;;;4954096;28;20630;-52
2024/03/02 01:47:34;;;;;;;33.40;18.93;;;8.40;99.90;;;;;;4961888;28;20411;-52
2024/03/02 01:50:02;;;;;;;33.77;18.63;;;8.40;99.90;;;;;;4963715;28;20272;-54
2024/03/02 01:52:29;;;;;;;34.47;19.73;;;8.40;99.90;;;;;;4951163;28;20198;-52
2024/03/02 01:54:56;;;;;;;35.53;20.13;;;8.40;99.90;;;;;;4935243;28;20289;-53
2024/03/02 01:57:23;;;;;;;34.87;19.37;;;8.40;99.90;;;;;;4952935;28;20206;-54
2024/03/02 01:59:51;;;;;;;30.37;18.87;;;8.40;99.90;;;;;;4963407;28;20245;-51
2024/03/02 02:02:18;;;;;;;32.30;19.03;;;8.40;99.90;;;;;;4949727;28;20297;-54
2024/03/02 02:04:45;;;;;;;29.43;18.37;;;8.30;99.90;;;;;;4964033;28;20198;-51
2024/03/02 02:07:14;;;;;;;33.53;20.07;;;8.40;99.90;;;;;;4955365;28;20213;-53
2024/03/02 02:09:41;;;;;;;38.30;19.10;;;8.40;99.90;;;;;;4934090;28;20234;-56
2024/03/02 02:12:08;;;;;;;34.97;20.00;;;8.30;99.90;;;;;;4964000;28;20199;-52
2024/03/02 02:14:35;;;;;;;32.13;18.67;;;8.40;99.90;;;;;;4953696;28;20225;-55
2024/03/02 02:17:03;;;;;;;34.63;19.63;;;8.30;99.90;;;;;;4954674;28;20217;-52
2024/03/02 02:19:30;;;;;;;35.83;19.80;;;8.30;99.90;;;;;;4959191;28;20529;-54
2024/03/02 02:22:03;;;;;;;34.40;20.70;;;8.30;99.90;;;;;;4963578;28;20194;-55
2024/03/02 02:24:30;;;;;;;34.87;19.83;;;8.30;99.90;;;;;;4951710;28;20207;-54
2024/03/02 02:26:57;;;;;;;38.03;21.23;;;8.30;99.90;;;;;;4934997;28;20214;-51
2024/03/02 02:29:23;;;;;;;35.60;21.53;;;8.30;99.90;;;;;;4951254;28;20229;-53
2024/03/02 02:31:50;;;;;;;34.37;20.43;;;8.20;99.90;;;;;;4955262;28;20246;-54
2024/03/02 02:34:17;;;;;;;34.30;20.13;;;8.20;99.90;;;;;;4956420;28;20549;-53
2024/03/02 02:36:45;;;;;;;34.83;19.70;;;8.20;99.90;;;;;;4957591;28;20592;-51
2024/03/02 02:39:16;;;;;;;35.53;20.90;;;8.20;99.90;;;;;;4951116;28;20293;-54
2024/03/02 02:41:43;;;;;;;39.37;21.50;;;8.10;99.90;;;;;;4933865;28;20210;-55
2024/03/02 02:44:12;;;;;;;39.33;21.27;;;8.10;99.90;;;;;;4953660;28;21094;-54
2024/03/02 02:46:39;;;;;;;36.00;20.83;;;8.10;99.90;;;;;;4960486;28;20661;-54
2024/03/02 02:49:06;;;;;;;35.73;21.47;;;8.10;99.90;;;;;;4952335;28;20224;-52
2024/03/02 02:51:33;;;;;;;36.43;20.77;;;8.00;99.90;;;;;;4963445;28;20201;-53
2024/03/02 02:54:00;;;;;;;39.23;21.50;;;8.00;99.90;;;;;;4948210;28;20201;-55
2024/03/02 02:56:28;;;;;;;39.57;22.00;;;8.00;99.90;;;;;;4959608;28;20718;-56
2024/03/02 02:58:54;;;;;;;37.37;21.13;;;8.10;99.90;;;;;;4927655;28;20227;-51
2024/03/02 03:01:21;;;;;;;36.83;21.57;;;8.00;99.90;;;;;;4952700;28;20288;-53
2024/03/02 03:03:49;;;;;;;40.13;21.37;;;8.00;99.90;;;;;;4932301;28;20218;-52
2024/03/02 03:06:16;;;;;;;35.50;20.23;;;8.00;99.90;;;;;;4954097;28;20257;-52
2024/03/02 03:08:43;;;;;;;35.13;20.37;;;8.00;99.90;;;;;;4952812;28;20201;-53
2024/03/02 03:11:10;;;;;;;38.43;21.90;;;8.00;99.90;;;;;;4946793;28;20206;-51
2024/03/02 03:13:38;;;;;;;34.17;20.90;;;8.00;99.90;;;;;;4929758;28;20206;-53
2024/03/02 03:16:05;;;;;;;33.73;20.07;;;8.00;99.90;;;;;;4951723;28;20236;-53
2024/03/02 03:18:32;;;;;;;34.53;20.17;;;8.00;99.90;;;;;;4953227;28;20225;-54
2024/03/02 03:20:59;;;;;;;37.03;20.77;;;8.00;99.90;;;;;;4959194;28;20811;-55
2024/03/02 03:23:26;;;;;;;36.33;21.30;;;8.00;99.90;;;;;;4963316;28;20225;-52
2024/03/02 03:25:52;;;;;;;39.27;21.07;;;8.00;99.90;;;;;;4950210;28;20202;-53
2024/03/02 03:28:19;;;;;;;37.07;21.00;;;8.00;99.90;;;;;;4935251;28;20210;-50
2024/03/02 03:30:47;;;;;;;34.13;20.77;;;8.00;99.90;;;;;;4956264;28;20633;-53
2024/03/02 03:33:14;;;;;;;36.57;21.07;;;8.00;99.90;;;;;;4959673;28;20260;-52
2024/03/02 03:35:41;;;;;;;36.90;21.90;;;8.00;99.90;;;;;;4950723;28;20206;-51
2024/03/02 03:38:08;;;;;;;34.87;19.20;;;8.00;99.90;;;;;;4960715;28;20206;-52
2024/03/02 03:40:35;;;;;;;36.97;22.13;;;8.00;99.90;;;;;;4939283;28;21059;-53
2024/03/02 03:43:02;;;;;;;35.23;21.27;;;8.00;99.90;;;;;;4962161;28;20229;-52
2024/03/02 03:45:30;;;;;;;37.57;20.80;;;8.00;99.90;;;;;;4930096;28;20316;-55
2024/03/02 03:47:58;;;;;;;36.73;21.43;;;7.90;99.90;;;;;;4954217;28;20228;-53
2024/03/02 03:50:25;;;;;;;38.20;21.30;;;7.90;99.90;;;;;;4949981;28;20222;-53
2024/03/02 03:52:52;;;;;;;37.77;20.93;;;8.00;99.90;;;;;;4962891;28;20197;-54
2024/03/02 03:55:19;;;;;;;32.87;20.17;;;7.90;99.90;;;;;;4954047;28;20194;-52
2024/03/02 03:57:45;;;;;;;36.90;20.40;;;7.90;99.90;;;;;;4956663;28;20227;-52
2024/03/02 04:00:13;;;;;;;35.90;20.40;;;7.90;99.90;;;;;;4934036;28;20383;-52
2024/03/02 04:02:40;;;;;;;35.93;21.17;;;7.90;99.90;;;;;;4949454;28;20233;-54
2024/03/02 04:05:10;;;;;;;32.63;20.33;;;7.90;99.90;;;;;;4952752;28;20249;-53
2024/03/02 04:07:40;;;;;;;32.70;21.30;;;7.90;99.90;;;;;;4959846;28;20182;-52
2024/03/02 04:10:12;;;;;;;38.20;21.53;;;7.90;99.90;;;;;;4962515;28;20617;-54
2024/03/02 04:12:39;;;;;;;37.83;20.43;;;7.90;99.90;;;;;;4952984;28;20218;-52
2024/03/02 04:15:07;;;;;;;35.67;20.43;;;7.80;99.90;;;;;;4937835;28;20213;-53
2024/03/02 04:17:35;;;;;;;37.27;20.20;;;7.90;99.90;;;;;;4954310;28;20285;-51
2024/03/02 04:20:04;;;;;;;39.20;21.47;;;7.90;99.90;;;;;;4945785;28;20321;-55
2024/03/02 04:22:34;;;;;;;38.00;20.87;;;7.90;99.90;;;;;;4951733;28;20772;-50
2024/03/02 04:25:01;;;;;;;33.63;20.47;;;7.80;99.90;;;;;;4954174;28;21667;-54
2024/03/02 04:27:28;;;;;;;33.37;19.73;;;7.90;99.90;;;;;;4952239;28;20214;-54
2024/03/02 04:29:55;;;;;;;36.20;20.93;;;7.80;99.90;;;;;;4931536;28;20452;-52
2024/03/02 04:32:22;;;;;;;37.53;20.73;;;7.80;99.90;;;;;;4959813;28;20211;-53
2024/03/02 04:34:49;;;;;;;34.47;20.10;;;7.80;99.90;;;;;;4943832;28;20202;-50
2024/03/02 04:37:16;;;;;;;31.40;20.17;;;7.80;99.90;;;;;;4950472;28;20277;-54
2024/03/02 04:39:45;;;;;;;33.13;19.43;;;7.80;99.90;;;;;;4962392;28;20626;-53
2024/03/02 04:42:11;;;;;;;35.90;20.67;;;7.80;99.90;;;;;;4944382;28;20210;-54
2024/03/02 04:44:38;;;;;;;33.07;19.83;;;7.80;99.90;;;;;;4959105;28;20217;-52
2024/03/02 04:47:06;;;;;;;29.50;19.23;;;7.80;99.90;;;;;;4924322;28;20210;-53
2024/03/02 04:49:32;;;;;;;34.27;20.43;;;7.80;99.90;;;;;;4952915;28;20284;-53
2024/03/02 04:51:59;;;;;;;33.77;19.80;;;7.80;99.90;;;;;;4944647;28;20206;-54
2024/03/02 04:54:26;;;;;;;30.07;18.67;;;7.80;99.90;;;;;;4965224;28;20562;-54
2024/03/02 04:56:54;;;;;;;35.00;19.33;;;7.80;99.90;;;;;;4946362;28;20249;-52
2024/03/02 04:59:21;;;;;;;30.23;19.23;;;7.80;99.90;;;;;;4957447;28;20248;-54
2024/03/02 05:01:48;;;;;;;28.43;18.10;;;7.80;99.90;;;;;;4920831;28;20233;-51
2024/03/02 05:04:15;;;;;;;32.67;18.40;;;7.80;99.90;;;;;;4955165;28;21042;-53
2024/03/02 05:06:42;;;;;;;28.80;19.53;;;7.80;99.90;;;;;;4944885;28;20206;-52
2024/03/02 05:09:09;;;;;;;30.37;18.00;;;7.80;99.90;;;;;;4956709;28;20226;-54
2024/03/02 05:11:56;;;;;;;32.83;19.27;;;7.80;99.90;;;;;;4960356;28;20264;-54
2024/03/02 05:14:24;;;;;;;30.03;18.93;;;7.80;99.90;;;;;;4950663;28;20521;-54
2024/03/02 05:16:51;;;;;;;27.47;17.97;;;7.70;99.90;;;;;;4936444;28;20214;-49
2024/03/02 05:19:18;;;;;;;31.13;19.17;;;7.70;99.90;;;;;;4944307;28;20330;-54
2024/03/02 05:21:45;;;;;;;30.27;19.03;;;7.70;99.90;;;;;;4947962;28;20223;-53
2024/03/02 05:24:12;;;;;;;29.33;18.07;;;7.70;99.90;;;;;;4948116;28;20227;-56
2024/03/02 05:26:39;;;;;;;30.07;18.77;;;7.70;99.90;;;;;;4957217;28;20776;-53
2024/03/02 05:29:07;;;;;;;33.63;19.50;;;7.70;99.90;;;;;;4949715;28;20237;-53
2024/03/02 05:31:35;;;;;;;30.83;18.03;;;7.70;99.90;;;;;;4954212;28;20265;-56
2024/03/02 05:34:02;;;;;;;32.27;19.17;;;7.70;99.90;;;;;;4925009;28;20214;-56
2024/03/02 05:36:30;;;;;;;34.07;19.63;;;7.70;99.90;;;;;;4947316;28;20265;-53
2024/03/02 05:38:56;;;;;;;30.70;18.40;;;7.70;99.90;;;;;;4948741;28;20241;-52
2024/03/02 05:41:23;;;;;;;31.47;19.27;;;7.70;99.90;;;;;;4957969;28;20621;-55
2024/03/02 05:43:50;;;;;;;27.23;17.50;;;7.70;99.90;;;;;;4950223;28;20210;-52
2024/03/02 05:46:17;;;;;;;34.23;20.37;;;7.70;99.90;;;;;;4950676;28;20225;-54
2024/03/02 05:48:45;;;;;;;31.63;18.50;;;7.70;99.90;;;;;;4933555;28;20214;-51
2024/03/02 05:51:12;;;;;;;30.70;18.53;;;7.70;99.90;;;;;;4953990;28;20839;-52
2024/03/02 05:53:39;;;;;;;30.50;18.47;;;7.60;99.90;;;;;;4935900;28;20211;-53
2024/03/02 05:56:06;;;;;;;29.00;17.57;;;7.60;99.90;;;;;;4955285;28;20206;-56
2024/03/02 05:58:46;;;;;;;27.80;17.33;;;7.60;99.90;;;;;;4956120;28;21140;-53
2024/03/02 06:01:13;;;;;;;29.00;17.70;;;7.60;99.90;;;;;;4932788;28;20209;-55
2024/03/02 06:03:39;;;;;;;28.03;18.17;;;7.60;99.90;;;;;;4933853;28;21395;-53
2024/03/02 06:06:07;;;;;;;29.30;17.90;;;7.60;99.90;;;;;;4951932;28;20226;-54
2024/03/02 06:08:35;;;;;;;27.07;17.23;;;7.60;99.90;;;;;;4936200;28;20207;-53
2024/03/02 06:11:02;;;;;;;30.13;18.37;;;7.60;99.90;;;;;;4954230;28;20218;-53
2024/03/02 06:13:29;;;;;;;29.53;17.27;;;7.60;99.90;;;;;;4952680;28;20288;-55
2024/03/02 06:15:55;;;;;;;30.23;17.67;;;7.60;99.90;;;;;;4951075;28;20202;-54
2024/03/02 06:18:23;;;;;;;32.77;18.27;;;7.60;99.90;;;;;;4947573;28;22332;-50
2024/03/02 06:20:49;;;;;;;27.23;17.80;;;7.60;99.90;;;;;;4914532;28;20300;-54
2024/03/02 06:23:18;;;;;;;31.17;17.27;;;7.60;99.90;;;;;;4941412;28;20218;-54
2024/03/02 06:25:44;;;;;;;27.03;17.60;;;7.60;99.90;;;;;;4952825;28;20190;-55
2024/03/02 06:28:11;;;;;;;31.17;18.70;;;7.60;99.90;;;;;;4960428;28;20230;-53
2024/03/02 06:30:38;;;;;;;30.77;17.80;;;7.60;99.90;;;;;;4961764;28;21089;-53
2024/03/02 06:33:05;;;;;;;26.53;16.13;;;7.60;99.90;;;;;;4954411;28;20620;-53
2024/03/02 06:35:32;;;;;;;25.83;17.10;;;7.60;99.90;;;;;;4921041;28;20202;-53
2024/03/02 06:37:59;;;;;;;26.13;16.73;;;7.60;99.90;;;;;;4941814;28;20259;-52
2024/03/02 06:40:27;;;;;;;27.00;18.10;;;7.60;99.90;;;;;;4953790;28;20250;-55
2024/03/02 06:42:54;;;;;;;26.23;16.20;;;7.60;99.90;;;;;;4959507;28;20319;-55
2024/03/02 06:45:21;;;;;;;29.03;17.03;;;7.60;99.90;;;;;;4963498;28;20217;-55
2024/03/02 06:47:48;;;;;;;28.33;17.47;;;7.50;99.90;;;;;;4961821;28;20272;-56
2024/03/02 06:50:15;;;;;;;30.03;18.07;;;7.50;99.90;;;;;;4960997;28;20222;-51
2024/03/02 06:52:42;;;;;;;30.67;17.27;;;7.50;99.90;;;;;;4924634;28;20679;-51
2024/03/02 06:55:09;;;;;;;27.70;17.07;;;7.50;99.90;;;;;;4952599;28;20206;-53
2024/03/02 06:57:37;;;;;;;29.67;16.70;;;7.50;99.90;;;;;;4951162;28;20244;-53
2024/03/02 07:00:05;;;;;;;26.30;17.13;;;7.50;99.90;;;;;;4961536;28;20264;-53
2024/03/02 07:02:32;;;;;;;31.27;16.90;;;7.50;99.90;;;;;;4951176;28;20555;-52
2024/03/02 07:04:59;;;;;;;29.53;17.33;;;7.50;99.90;;;;;;4958568;28;20324;-50
2024/03/02 07:07:25;;;;;;;28.17;17.87;;;7.50;99.90;;;;;;4926712;28;20210;-50
2024/03/02 07:09:52;;;;;;;26.00;16.93;;;7.60;99.90;;;;;;4944047;28;20251;-55
2024/03/02 07:12:19;;;;;;;27.77;17.47;;;7.60;99.90;;;;;;4962397;28;20265;-52
2024/03/02 07:15:18;;;;;;;27.13;16.87;;;7.60;99.90;;;;;;4960577;28;20193;-54
2024/03/02 07:17:45;;;;;;;26.57;16.63;;;7.70;99.90;;;;;;4959450;28;20794;-55
2024/03/02 07:20:12;;;;;;;26.17;16.73;;;7.70;99.90;;;;;;4951372;28;20312;-54
2024/03/02 07:22:39;;;;;;;27.93;16.90;;;7.70;99.90;;;;;;4924778;28;20341;-54
2024/03/02 07:25:07;;;;;;;25.60;17.27;;;7.70;99.90;;;;;;4945217;28;20244;-52
2024/03/02 07:27:35;;;;;;;27.97;17.03;;;7.80;99.90;;;;;;4955149;28;20206;-51
2024/03/02 07:30:03;;;;;;;28.53;17.30;;;7.80;99.90;;;;;;4961544;28;20237;-55
2024/03/02 07:32:30;;;;;;;26.30;16.90;;;7.80;99.90;;;;;;4958741;28;20190;-53
2024/03/02 07:34:57;;;;;;;27.07;16.97;;;7.90;99.90;;;;;;4947612;28;20207;-53
2024/03/02 07:37:24;;;;;;;26.43;15.87;;;7.90;99.90;;;;;;4931242;28;20245;-54
2024/03/02 07:39:51;;;;;;;23.07;15.67;;;7.90;99.90;;;;;;4953908;28;20221;-54
2024/03/02 07:42:18;;;;;;;29.80;17.30;;;8.00;99.90;;;;;;4949597;28;20790;-52
2024/03/02 07:44:45;;;;;;;24.87;16.43;;;8.00;99.90;;;;;;4963705;28;20268;-54
2024/03/02 07:47:14;;;;;;;24.23;16.53;;;8.00;99.90;;;;;;4961872;28;21507;-54
2024/03/02 07:49:41;;;;;;;26.67;16.63;;;8.10;99.90;;;;;;4946417;28;20238;-54
2024/03/02 07:52:08;;;;;;;28.03;17.57;;;8.10;99.90;;;;;;4956961;28;20261;-52
2024/03/02 07:54:34;;;;;;;22.97;15.77;;;8.10;99.90;;;;;;4947191;28;21039;-52
2024/03/02 07:57:01;;;;;;;25.00;16.20;;;8.20;99.90;;;;;;4951602;28;20233;-55
2024/03/02 07:59:28;;;;;;;26.07;16.40;;;8.20;99.90;;;;;;4962838;28;20271;-51
2024/03/02 08:01:56;;;;;;;24.93;16.10;;;8.20;99.90;;;;;;4968043;28;20198;-52
2024/03/02 08:04:24;;;;;;;23.40;15.40;;;8.30;99.90;;;;;;4962756;28;20217;-52
2024/03/02 08:06:51;;;;;;;25.20;16.87;;;8.30;99.90;;;;;;4956985;28;20581;-51
2024/03/02 08:09:18;;;;;;;27.23;16.60;;;8.30;99.90;;;;;;4935528;28;20233;-54
2024/03/02 08:11:45;;;;;;;28.43;16.73;;;8.30;99.90;;;;;;4952107;28;20205;-51
2024/03/02 08:14:12;;;;;;;28.80;15.60;;;8.40;99.90;;;;;;4964008;28;20202;-52
2024/03/02 08:16:38;;;;;;;25.73;15.67;;;8.40;99.90;;;;;;4962550;28;20222;-56
2024/03/02 08:19:05;;;;;;;24.33;15.50;;;8.40;99.90;;;;;;4964577;28;20735;-52
2024/03/02 08:21:35;;;;;;;26.83;16.00;;;8.50;99.90;;;;;;4953822;28;20218;-52
2024/03/02 08:24:03;;;;;;;23.90;15.27;;;8.50;99.90;;;;;;4936227;28;20703;-53
2024/03/02 08:26:31;;;;;;;23.77;15.97;;;8.50;99.90;;;;;;4954943;28;20302;-51
2024/03/02 08:28:58;;;;;;;23.40;15.70;;;8.60;99.90;;;;;;4966240;28;20225;-53
2024/03/02 08:31:25;;;;;;;23.77;15.53;;;8.60;99.90;;;;;;4962710;28;20226;-52
2024/03/02 08:33:52;;;;;;;22.33;14.87;;;8.60;99.90;;;;;;4950222;28;20225;-50
2024/03/02 08:36:19;;;;;;;19.57;14.23;;;8.70;99.90;;;;;;4965286;28;20279;-56
2024/03/02 08:38:49;;;;;;;26.83;15.23;;;8.70;99.90;;;;;;4920283;28;20224;-50
2024/03/02 08:41:16;;;;;;;22.77;14.30;;;8.80;99.90;;;;;;4957611;28;20202;-53
2024/03/02 08:43:43;;;;;;;21.07;14.97;;;8.80;99.90;;;;;;4953337;28;20268;-53
2024/03/02 08:46:10;;;;;;;23.97;15.17;;;8.80;99.90;;;;;;4969940;28;20850;-55
2024/03/02 08:48:37;;;;;;;24.07;15.57;;;8.90;99.90;;;;;;4964192;28;20607;-52
2024/03/02 08:51:07;;;;;;;22.93;14.33;;;8.90;99.90;;;;;;4965043;28;20782;-52
2024/03/02 08:53:34;;;;;;;22.10;15.47;;;9.00;99.90;;;;;;4950404;28;20272;-49
2024/03/02 08:56:05;;;;;;;21.40;15.13;;;9.00;99.90;;;;;;4924723;28;20222;-52
2024/03/02 08:58:32;;;;;;;21.37;13.70;;;9.10;99.90;;;;;;4953879;28;20213;-49
2024/03/02 09:00:59;;;;;;;22.93;15.00;;;9.10;99.90;;;;;;4956251;28;20206;-53
2024/03/02 09:03:26;;;;;;;20.40;14.03;;;9.20;99.90;;;;;;4964218;28;20194;-54
2024/03/02 09:05:53;;;;;;;24.60;15.83;;;9.30;99.90;;;;;;4949712;28;23296;-50
2024/03/02 09:08:20;;;;;;;25.00;15.77;;;9.30;99.90;;;;;;4949776;28;20742;-52
2024/03/02 09:10:46;;;;;;;24.90;16.10;;;9.40;99.90;;;;;;4934237;28;20312;-51
2024/03/02 09:13:15;;;;;;;21.77;13.97;;;9.50;99.90;;;;;;4945582;28;20307;-51
2024/03/02 09:15:42;;;;;;;23.90;15.53;;;9.50;99.90;;;;;;4964277;28;20267;-50
2024/03/02 09:18:09;;;;;;;23.93;15.33;;;9.60;99.90;;;;;;4965893;28;20202;-54
2024/03/02 09:20:36;;;;;;;23.53;15.40;;;9.70;99.90;;;;;;4953359;28;20210;-50
2024/03/02 09:23:02;;;;;;;18.30;13.37;;;9.70;99.90;;;;;;4949973;28;20230;-54
2024/03/02 09:25:29;;;;;;;20.23;14.33;;;9.80;99.90;;;;;;4944688;28;20702;-48
2024/03/02 09:27:56;;;;;;;22.77;14.47;;;9.90;99.90;;;;;;4939643;28;20280;-54
2024/03/02 09:30:24;;;;;;;20.20;14.17;;;10.00;99.90;;;;;;4961248;28;20217;-54
2024/03/02 09:32:51;;;;;;;23.97;14.87;;;10.20;99.90;;;;;;4961997;28;20949;-54
2024/03/02 09:35:18;;;;;;;20.70;13.97;;;10.30;99.90;;;;;;4967986;28;20248;-50
2024/03/02 09:37:45;;;;;;;22.90;13.20;;;10.30;99.90;;;;;;4943971;28;20201;-51
2024/03/02 09:40:12;;;;;;;19.47;13.87;;;10.20;99.90;;;;;;4948812;28;20257;-51
2024/03/02 09:42:39;;;;;;;20.70;14.60;;;10.20;99.90;;;;;;4927411;28;20236;-50
2024/03/02 09:45:07;;;;;;;20.00;13.57;;;10.30;99.90;;;;;;4963046;28;20289;-52
2024/03/02 09:47:36;;;;;;;21.70;13.60;;;10.30;99.90;;;;;;4961316;28;20289;-52
2024/03/02 09:50:03;;;;;;;18.23;12.87;;;10.40;99.90;;;;;;4965330;28;20224;-54
2024/03/02 09:52:32;;;;;;;19.97;14.00;;;10.40;99.90;;;;;;4959503;28;20289;-49
2024/03/02 09:54:58;;;;;;;21.37;14.30;;;10.50;99.90;;;;;;4948258;28;20202;-51
2024/03/02 09:57:25;;;;;;;18.27;12.87;;;10.60;99.90;;;;;;4933666;28;20222;-52
2024/03/02 09:59:52;;;;;;;21.93;14.03;;;10.50;99.90;;;;;;4953116;28;20222;-53
2024/03/02 10:02:19;;;;;;;19.67;13.50;;;10.60;99.90;;;;;;4960512;28;20202;-53
2024/03/02 10:04:50;;;;;;;19.40;13.40;;;10.70;99.90;;;;;;4958764;28;20284;-53
2024/03/02 10:07:17;;;;;;;20.53;13.73;;;10.80;99.90;;;;;;4963255;28;20250;-52
2024/03/02 10:09:45;;;;;;;17.17;12.20;;;10.90;99.90;;;;;;4960587;28;20874;-50
2024/03/02 10:12:13;;;;;;;18.23;12.70;;;11.00;99.90;;;;;;4948698;28;20202;-55
2024/03/02 10:14:41;;;;;;;21.53;12.60;;;11.10;99.90;;;;;;4915793;28;20223;-53
2024/03/02 10:17:09;;;;;;;16.30;10.83;;;11.10;99.90;;;;;;4960928;28;20220;-52
2024/03/02 10:19:36;;;;;;;20.17;11.80;;;11.20;99.90;;;;;;4960255;28;20300;-52
2024/03/02 10:22:06;;;;;;;16.70;11.43;;;11.20;99.90;;;;;;4963650;28;20210;-51
2024/03/02 10:24:38;;;;;;;15.67;11.90;;;11.30;99.90;;;;;;4960685;28;20206;-53
2024/03/02 10:27:09;;;;;;;14.80;11.07;;;11.40;99.90;;;;;;4943697;28;20212;-52
2024/03/02 10:29:40;;;;;;;18.37;13.20;;;11.50;99.90;;;;;;4916998;28;20237;-52
2024/03/02 10:32:10;;;;;;;15.20;11.43;;;11.50;99.90;;;;;;4963561;28;20281;-50
2024/03/02 10:34:38;;;;;;;16.43;11.93;;;11.60;99.90;;;;;;4959764;28;20285;-53
2024/03/02 10:37:07;;;;;;;13.77;10.03;;;11.60;99.90;;;;;;4963555;28;20200;-53
2024/03/02 10:39:36;;;;;;;16.77;11.03;;;11.70;99.90;;;;;;4960109;28;20209;-51
2024/03/02 10:42:04;;;;;;;15.10;10.70;;;11.70;99.90;;;;;;4945259;28;20214;-51
2024/03/02 10:44:32;;;;;;;14.90;10.40;;;11.80;99.90;;;;;;4923487;28;20214;-52
2024/03/02 10:47:03;;;;;;;17.27;10.27;;;11.90;99.90;;;;;;4962481;28;20203;-54
2024/03/02 10:49:31;;;;;;;15.10;10.83;;;11.90;99.90;;;;;;4959285;28;20263;-51
2024/03/02 10:51:58;;;;;;;13.87;10.57;;;11.90;99.90;;;;;;4963568;28;20204;-53
2024/03/02 10:54:28;;;;;;;13.17;10.33;;;12.00;99.90;;;;;;4961927;28;20262;-52
2024/03/02 10:56:59;;;;;;;14.67;11.03;;;12.00;99.90;;;;;;4962750;28;20205;-52
2024/03/02 10:59:29;;;;;;;15.87;10.13;;;12.10;99.90;;;;;;4912348;28;20218;-53
2024/03/02 11:01:58;;;;;;;15.43;10.63;;;12.10;99.90;;;;;;4956665;28;20289;-51
2024/03/02 11:04:26;;;;;;;13.07;10.43;;;12.10;99.90;;;;;;4961114;28;20213;-54
2024/03/02 11:06:55;;;;;;;12.40;9.43;;;12.10;99.90;;;;;;4949285;28;20224;-52
2024/03/02 11:09:26;;;;;;;12.93;9.83;;;12.10;99.90;;;;;;4961793;28;20978;-53
2024/03/02 11:12:02;;;;;;;12.67;9.40;;;12.20;99.90;;;;;;4957732;28;20644;-52
2024/03/02 11:14:31;;;;;;;12.70;9.17;;;12.30;99.90;;;;;;4920120;28;20204;-51
2024/03/02 11:16:59;;;;;;;15.43;10.07;;;12.30;99.90;;;;;;4948376;28;20230;-53
2024/03/02 11:19:27;;;;;;;13.13;9.77;;;12.30;99.90;;;;;;4963009;28;20757;-54
2024/03/02 11:21:54;;;;;;;12.43;9.30;;;12.30;99.90;;;;;;4962791;28;20253;-52
2024/03/02 11:24:34;;;;;;;13.23;9.07;;;12.30;99.90;;;;;;4966278;28;20202;-54
2024/03/02 11:27:06;;;;;;;11.07;8.07;;;12.40;99.90;;;;;;4963400;28;20301;-53
2024/03/02 11:29:45;;;;;;;13.10;8.80;;;12.40;99.90;;;;;;4937322;28;20233;-54
2024/03/02 11:32:23;;;;;;;12.20;9.47;;;12.40;99.90;;;;;;4957619;28;20324;-55
2024/03/02 11:34:51;;;;;;;12.93;8.73;;;12.40;99.90;;;;;;4965451;28;20189;-53
2024/03/02 11:37:20;;;;;;;13.07;8.93;;;12.40;99.90;;;;;;4964294;28;20186;-53
2024/03/02 11:39:49;;;;;;;11.47;8.90;;;12.40;99.90;;;;;;4965824;28;20218;-56
2024/03/02 11:42:18;;;;;;;11.40;8.83;;;12.40;99.90;;;;;;4963450;28;20206;-52
2024/03/02 11:44:47;;;;;;;12.80;9.57;;;12.40;99.90;;;;;;4960366;28;20289;-53
2024/03/02 11:47:16;;;;;;;9.90;8.67;;;12.40;99.90;;;;;;4937332;28;20357;-53
2024/03/02 11:49:45;;;;;;;12.73;8.60;;;12.40;99.90;;;;;;4965481;28;20284;-51
2024/03/02 11:52:13;;;;;;;10.00;8.03;;;12.40;99.90;;;;;;4963575;28;20900;-51
2024/03/02 11:54:46;;;;;;;10.30;7.87;;;12.50;99.90;;;;;;4963767;28;20624;-55
2024/03/02 11:57:13;;;;;;;10.30;8.10;;;12.50;99.90;;;;;;4963205;28;20205;-54
2024/03/02 11:59:42;;;;;;;11.57;8.57;;;12.50;99.90;;;;;;4964974;28;20228;-50
2024/03/02 12:02:16;;;;;;;11.50;7.87;;;12.60;99.90;;;;;;4923002;28;20274;-52
2024/03/02 12:04:44;;;;;;;10.47;8.00;;;12.60;99.90;;;;;;4963763;28;20205;-52
2024/03/02 12:07:12;;;;;;;10.93;8.13;;;12.60;99.90;;;;;;4958028;28;23333;-51
2024/03/02 12:09:39;;;;;;;13.80;8.73;;;12.60;99.90;;;;;;4956714;28;20225;-54
2024/03/02 12:12:07;;;;;;;10.87;8.50;;;12.60;99.90;;;;;;4963549;28;20198;-50
2024/03/02 12:14:36;;;;;;;11.97;8.87;;;12.60;99.90;;;;;;4965474;28;20196;-53
2024/03/02 12:17:05;;;;;;;11.37;8.57;;;12.60;99.90;;;;;;4933379;28;20281;-52
2024/03/02 12:19:33;;;;;;;9.00;7.37;;;12.70;99.90;;;;;;4960993;28;20316;-53
2024/03/02 12:22:00;;;;;;;7.07;5.83;;;12.70;99.90;;;;;;4961621;28;20209;-54
2024/03/02 12:24:29;;;;;;;8.13;6.10;;;12.70;99.90;;;;;;4963247;28;20971;-50
2024/03/02 12:26:56;;;;;;;7.47;6.07;;;12.80;99.90;;;;;;4965834;28;20214;-54
2024/03/02 12:29:24;;;;;;;10.63;6.93;;;12.80;99.90;;;;;;4962227;28;20210;-53
2024/03/02 12:31:52;;;;;;;12.23;7.37;;;12.90;99.90;;;;;;4965871;28;20190;-51
2024/03/02 12:34:20;;;;;;;7.77;6.07;;;12.90;99.90;;;;;;4931205;28;20224;-53
2024/03/02 12:36:49;;;;;;;6.70;5.50;;;12.90;99.90;;;;;;4965349;28;20217;-56
2024/03/02 12:39:17;;;;;;;7.43;5.93;;;12.90;99.90;;;;;;4959887;28;20218;-54